Time;durP1;ratioP1;P1;durP2;ratioP2;P2;SDS_P1;SDS_P2;PMS_P1;PMS_P2;Temp;Humidity;BMP_temperature;BMP_pressure;BME280_temperature;BME280_humidity;BME280_pressure;Samples;Min_cycle;Max_cycle;Signal;HPM_P1;HPM_P2
2023/01/28 00:01:11;;;;;;;7.15;2.28;;;;;;;18.51;42.51;102803.00;5014838;28;20033;-75
2023/01/28 00:03:37;;;;;;;5.78;2.17;;;;;;;18.47;42.49;102794.41;5014847;28;20095;-73
2023/01/28 00:06:07;;;;;;;6.40;2.33;;;;;;;18.43;42.38;102790.19;5015804;28;20120;-74
2023/01/28 00:08:33;;;;;;;9.43;2.40;;;;;;;18.46;42.40;102795.31;5013685;28;20044;-74
2023/01/28 00:11:04;;;;;;;8.00;2.30;;;;;;;18.44;42.54;102799.00;5016829;28;20041;-73
2023/01/28 00:13:30;;;;;;;6.80;2.30;;;;;;;18.46;42.44;102805.03;5015726;28;20033;-73
2023/01/28 00:16:03;;;;;;;6.03;2.20;;;;;;;18.40;42.66;102808.84;5014329;28;20029;-73
2023/01/28 00:18:30;;;;;;;7.20;2.25;;;;;;;18.43;42.91;102805.19;5014899;28;20425;-75
2023/01/28 00:20:59;;;;;;;6.97;2.10;;;;;;;18.38;42.83;102802.78;5015411;28;20033;-74
2023/01/28 00:23:25;;;;;;;7.65;2.30;;;;;;;18.41;42.62;102807.91;5015070;28;20045;-73
2023/01/28 00:25:51;;;;;;;8.27;2.03;;;;;;;18.41;42.67;102817.63;5015856;28;20136;-73
2023/01/28 00:28:16;;;;;;;5.50;2.35;;;;;;;18.41;42.61;102812.34;5015777;28;20120;-74
2023/01/28 00:30:42;;;;;;;8.00;2.45;;;;;;;18.36;42.16;102809.06;5014194;28;20103;-75
2023/01/28 00:33:07;;;;;;;7.95;2.50;;;;;;;18.38;42.64;102812.50;5014750;28;20034;-73
2023/01/28 00:35:32;;;;;;;8.23;2.40;;;;;;;18.36;42.62;102809.94;5015074;28;20092;-73
2023/01/28 00:37:59;;;;;;;7.55;2.47;;;;;;;18.34;42.16;102817.09;5015423;28;20537;-71
2023/01/28 00:40:24;;;;;;;8.20;2.53;;;;;;;18.32;42.46;102816.31;5015173;28;20531;-73
2023/01/28 00:42:49;;;;;;;6.28;2.10;;;;;;;18.34;42.55;102822.38;5016158;28;20045;-73
2023/01/28 00:45:15;;;;;;;6.53;2.20;;;;;;;18.32;42.57;102821.59;5014777;28;20030;-72
2023/01/28 00:47:40;;;;;;;8.02;2.92;;;;;;;18.35;42.59;102826.72;5014622;28;20030;-74
2023/01/28 00:50:06;;;;;;;7.82;2.58;;;;;;;18.32;42.46;102829.50;5015467;28;20033;-73
2023/01/28 00:52:31;;;;;;;5.93;2.38;;;;;;;18.31;42.61;102819.91;5015369;28;20140;-74
2023/01/28 00:54:57;;;;;;;7.78;2.65;;;;;;;18.32;42.52;102821.59;5014552;28;20042;-73
2023/01/28 00:57:22;;;;;;;9.02;2.78;;;;;;;18.31;42.54;102831.28;5010715;28;20041;-73
2023/01/28 00:59:47;;;;;;;6.30;2.60;;;;;;;18.30;42.39;102828.72;5014028;28;20175;-74
2023/01/28 01:02:13;;;;;;;5.43;2.40;;;;;;;18.28;42.26;102830.59;5014956;28;20040;-74
2023/01/28 01:04:39;;;;;;;7.72;2.35;;;;;;;18.28;42.53;102836.72;5012776;28;20033;-74
2023/01/28 01:07:05;;;;;;;7.00;2.72;;;;;;;18.27;42.28;102842.09;5013890;28;20096;-74
2023/01/28 01:09:31;;;;;;;6.05;2.30;;;;;;;18.26;42.50;102835.09;5013935;28;20473;-73
2023/01/28 01:11:56;;;;;;;6.55;2.45;;;;;;;18.25;42.40;102836.03;5014749;28;20041;-73
2023/01/28 01:14:21;;;;;;;6.53;2.53;;;;;;;18.24;42.55;102831.69;5015699;28;20124;-74
2023/01/28 01:16:47;;;;;;;9.18;2.35;;;;;;;18.20;42.28;102824.84;5014115;28;20030;-73
2023/01/28 01:19:12;;;;;;;6.97;2.72;;;;;;;18.21;42.43;102823.91;5014850;28;20030;-72
2023/01/28 01:21:38;;;;;;;7.25;2.92;;;;;;;18.22;42.45;102830.91;5014218;28;20033;-72
2023/01/28 01:24:03;;;;;;;5.95;2.55;;;;;;;18.21;42.16;102830.03;5014853;28;20034;-74
2023/01/28 01:26:29;;;;;;;9.73;2.70;;;;;;;18.19;42.31;102834.53;5014896;28;20029;-73
2023/01/28 01:28:54;;;;;;;6.18;2.22;;;;;;;18.11;42.21;102824.38;5014251;28;20065;-74
2023/01/28 01:31:21;;;;;;;5.75;2.45;;;;;;;18.18;42.22;102832.81;5014980;28;20497;-75
2023/01/28 01:33:49;;;;;;;8.35;2.65;;;;;;;18.17;42.12;102819.75;5012695;28;20486;-75
2023/01/28 01:36:17;;;;;;;6.35;2.50;;;;;;;18.18;42.25;102818.78;5012703;28;20061;-74
2023/01/28 01:38:42;;;;;;;7.13;2.50;;;;;;;18.17;42.41;102830.28;5013097;28;20041;-75
2023/01/28 01:41:15;;;;;;;6.68;2.45;;;;;;;18.13;42.33;102819.91;5012043;28;20034;-74
2023/01/28 01:43:47;;;;;;;8.48;2.53;;;;;;;18.14;42.20;102823.38;5012173;28;20063;-74
2023/01/28 01:46:16;;;;;;;7.15;2.72;;;;;;;18.11;42.20;102820.88;5011889;28;20136;-75
2023/01/28 01:48:42;;;;;;;9.20;2.83;;;;;;;18.09;42.22;102818.31;5012437;28;20498;-75
2023/01/28 01:51:11;;;;;;;7.82;3.10;;;;;;;18.10;42.40;102833.25;5012328;28;20058;-75
2023/01/28 01:53:44;;;;;;;6.13;2.60;;;;;;;18.03;42.00;102823.91;5013887;28;20025;-75
2023/01/28 01:56:14;;;;;;;8.52;2.58;;;;;;;18.04;42.17;102820.34;5013164;28;20060;-74
2023/01/28 01:58:42;;;;;;;5.05;2.22;;;;;;;18.05;42.17;102826.47;5011970;28;21143;-73
2023/01/28 02:01:09;;;;;;;5.97;2.35;;;;;;;18.07;42.38;102830.75;5013669;28;20025;-74
2023/01/28 02:04:24;;;;;;;7.45;3.00;;;;;;;18.07;42.14;102832.50;5012579;28;20088;-74
2023/01/28 02:06:49;;;;;;;6.78;2.95;;;;;;;18.06;42.13;102833.47;5004823;28;20073;-73
2023/01/28 02:09:28;;;;;;;8.88;2.97;;;;;;;18.04;42.30;102835.31;5012956;28;20061;-73
2023/01/28 02:11:57;;;;;;;8.38;2.67;;;;;;;18.01;42.41;102838.97;5012540;28;20030;-74
2023/01/28 02:14:25;;;;;;;7.22;2.67;;;;;;;18.00;42.13;102828.47;5011396;28;21092;-72
2023/01/28 02:16:51;;;;;;;6.72;2.60;;;;;;;17.98;42.06;102839.13;5012364;28;20030;-73
2023/01/28 02:19:20;;;;;;;6.78;2.60;;;;;;;17.96;42.43;102833.06;5013182;28;20056;-73
2023/01/28 02:22:09;;;;;;;5.95;2.70;;;;;;;17.98;42.23;102841.75;5012163;28;20049;-74
2023/01/28 02:24:46;;;;;;;7.97;2.58;;;;;;;17.99;42.15;102846.09;5011946;28;20045;-73
2023/01/28 02:27:35;;;;;;;8.93;2.47;;;;;;;17.99;41.99;102837.31;5012599;28;20125;-73
2023/01/28 02:30:19;;;;;;;4.95;2.40;;;;;;;17.95;42.21;102834.00;5012392;28;20017;-73
2023/01/28 02:32:52;;;;;;;8.20;3.10;;;;;;;17.95;42.35;102834.00;5005188;28;20403;-74
2023/01/28 02:35:30;;;;;;;8.65;2.97;;;;;;;17.95;42.23;102829.56;5011915;28;20084;-74
2023/01/28 02:38:07;;;;;;;8.98;2.60;;;;;;;17.95;41.91;102836.63;5012697;28;20386;-74
2023/01/28 02:41:00;;;;;;;8.48;2.72;;;;;;;17.92;41.99;102832.34;5012453;28;20037;-74
2023/01/28 02:43:45;;;;;;;6.82;2.83;;;;;;;17.95;42.10;102836.63;5012827;28;20450;-73
2023/01/28 02:49:36;;;;;;;7.93;2.83;;;;;;;17.91;42.16;102829.78;5012546;28;20445;-73
2023/01/28 02:53:39;;;;;;;7.60;2.78;;;;;;;17.92;41.96;102836.78;5011366;28;20112;-73
2023/01/28 02:55:16;;;;;;;5.43;2.50;;;;;;;17.89;41.93;102836.91;5011017;28;21199;-72
2023/01/28 02:57:50;;;;;;;7.03;2.83;;;;;;;17.90;42.08;102843.91;5011692;28;20136;-73
2023/01/28 03:00:26;;;;;;;6.78;2.92;;;;;;;17.88;42.14;102845.75;5012165;28;20115;-73
2023/01/28 03:03:03;;;;;;;7.03;2.75;;;;;;;17.85;42.02;102838.81;5011597;28;20069;-73
2023/01/28 03:05:35;;;;;;;10.32;2.85;;;;;;;17.85;42.14;102840.59;5011338;28;20034;-72
2023/01/28 03:09:21;;;;;;;6.82;2.70;;;;;;;17.86;41.99;102850.22;5010894;28;20123;-73
2023/01/28 03:38:54;;;;;;;7.05;2.65;;;;;;;17.76;42.28;102850.66;5011114;28;20064;-74
2023/01/28 03:41:24;;;;;;;7.32;2.67;;;;;;;17.76;41.78;102847.19;5003857;28;20030;-73
2023/01/28 03:43:50;;;;;;;8.55;2.55;;;;;;;17.73;41.87;102848.16;5013487;28;20026;-73
2023/01/28 03:46:16;;;;;;;5.75;2.40;;;;;;;17.77;41.88;102859.44;5011191;28;20033;-73
2023/01/28 03:48:41;;;;;;;6.45;2.20;;;;;;;17.72;41.88;102849.13;5011105;28;20387;-74
2023/01/28 03:51:06;;;;;;;6.63;2.77;;;;;;;17.74;41.91;102846.41;5010757;28;20060;-73
2023/01/28 03:53:32;;;;;;;4.50;2.67;;;;;;;17.74;41.66;102846.41;5011110;28;20951;-73
2023/01/28 03:55:57;;;;;;;7.75;2.65;;;;;;;17.74;41.85;102851.69;5012412;28;20048;-74
2023/01/28 03:58:45;;;;;;;7.37;2.33;;;;;;;17.74;41.78;102857.81;5011665;28;20123;-74
2023/01/28 04:01:13;;;;;;;6.13;2.20;;;;;;;17.68;41.61;102858.09;5012110;28;20267;-74
2023/01/28 04:03:39;;;;;;;5.28;2.35;;;;;;;17.73;41.71;102860.50;5003666;28;20124;-74
2023/01/28 04:06:06;;;;;;;8.98;2.60;;;;;;;17.70;41.59;102861.50;5010558;28;20116;-74
2023/01/28 04:08:32;;;;;;;6.95;2.33;;;;;;;17.71;41.62;102865.00;5011429;28;20029;-74
2023/01/28 04:10:57;;;;;;;5.82;2.30;;;;;;;17.63;41.66;102853.97;5010620;28;20053;-74
2023/01/28 04:13:23;;;;;;;7.65;2.60;;;;;;;17.59;41.52;102854.13;5011446;28;20061;-74
2023/01/28 04:15:48;;;;;;;8.88;2.55;;;;;;;17.69;41.57;102870.34;5011415;28;20034;-75
2023/01/28 04:18:14;;;;;;;8.27;2.40;;;;;;;17.70;41.67;102874.69;5010702;28;20057;-74
2023/01/28 04:20:39;;;;;;;7.00;2.60;;;;;;;17.64;41.79;102861.81;5014384;28;20473;-74
2023/01/28 04:23:06;;;;;;;5.00;1.98;;;;;;;17.67;41.55;102877.47;5014271;28;20025;-74
2023/01/28 04:25:32;;;;;;;6.35;2.20;;;;;;;17.64;41.88;102868.84;5015123;28;20125;-74
2023/01/28 04:27:58;;;;;;;6.32;2.45;;;;;;;17.67;41.91;102874.84;5015135;28;20044;-74
2023/01/28 04:30:23;;;;;;;10.23;2.50;;;;;;;17.61;41.67;102863.72;5014977;28;20398;-74
2023/01/28 04:32:52;;;;;;;6.57;2.40;;;;;;;17.64;41.30;102863.59;5014423;28;20091;-74
2023/01/28 04:35:18;;;;;;;6.22;2.58;;;;;;;17.67;41.63;102871.34;5016237;28;20058;-74
2023/01/28 04:37:44;;;;;;;8.05;2.33;;;;;;;17.59;41.65;102867.31;5015554;28;20056;-73
2023/01/28 04:40:11;;;;;;;7.15;2.92;;;;;;;17.66;41.64;102873.13;5014294;28;20112;-74
2023/01/28 04:42:36;;;;;;;6.43;2.30;;;;;;;17.61;41.86;102861.09;5014181;28;20302;-74
2023/01/28 04:45:02;;;;;;;6.35;2.50;;;;;;;17.67;41.55;102866.06;5014449;28;20389;-74
2023/01/28 04:47:27;;;;;;;8.07;2.42;;;;;;;17.62;41.66;102860.16;5014846;28;20030;-75
2023/01/28 04:49:52;;;;;;;7.93;2.42;;;;;;;17.66;41.63;102874.94;5013837;28;20057;-74
2023/01/28 04:52:18;;;;;;;8.70;2.78;;;;;;;17.62;41.79;102860.16;5013806;28;20058;-75
2023/01/28 04:54:43;;;;;;;6.47;2.25;;;;;;;17.62;41.98;102863.66;5012439;28;20030;-75
2023/01/28 04:57:08;;;;;;;9.52;2.47;;;;;;;17.66;41.83;102872.28;5014581;28;20029;-75
2023/01/28 04:59:34;;;;;;;6.30;2.15;;;;;;;17.63;42.04;102869.81;5013030;28;20035;-75
2023/01/28 05:01:59;;;;;;;6.05;2.60;;;;;;;17.63;41.89;102864.53;5012927;28;20041;-73
2023/01/28 05:04:24;;;;;;;5.18;2.20;;;;;;;17.66;41.85;102873.13;5021937;28;20037;-73
2023/01/28 05:06:50;;;;;;;7.65;2.67;;;;;;;17.66;41.91;102873.13;5005841;28;20128;-75
2023/01/28 05:09:15;;;;;;;8.38;2.42;;;;;;;17.66;41.82;102877.56;5013603;28;20044;-74
2023/01/28 05:11:41;;;;;;;6.45;2.38;;;;;;;17.63;42.06;102872.44;5013130;28;20067;-75
2023/01/28 05:14:06;;;;;;;5.93;2.33;;;;;;;17.63;42.02;102873.28;5012907;28;20112;-74
2023/01/28 05:16:33;;;;;;;7.10;2.50;;;;;;;17.64;42.05;102868.84;5015165;28;20475;-74
2023/01/28 05:18:59;;;;;;;10.13;2.67;;;;;;;17.67;42.02;102876.63;5014210;28;20099;-75
2023/01/28 05:21:25;;;;;;;7.57;2.38;;;;;;;17.65;42.13;102878.50;5013538;28;20061;-75
2023/01/28 05:23:50;;;;;;;6.40;2.42;;;;;;;17.66;42.04;102883.69;5012611;28;20045;-75
2023/01/28 05:26:15;;;;;;;6.50;2.50;;;;;;;17.66;42.41;102880.22;5012676;28;20030;-74
2023/01/28 05:28:41;;;;;;;4.63;2.25;;;;;;;17.67;42.32;102877.47;5014247;28;20029;-74
2023/01/28 05:31:06;;;;;;;7.78;2.38;;;;;;;17.66;42.04;102875.78;5014851;28;20033;-75
2023/01/28 05:33:32;;;;;;;5.38;2.28;;;;;;;17.67;42.61;102871.34;5014279;28;20091;-74
2023/01/28 05:35:58;;;;;;;7.32;2.20;;;;;;;17.69;42.34;102875.63;5015396;28;20057;-74
2023/01/28 05:38:23;;;;;;;7.30;2.13;;;;;;;17.66;42.33;102865.22;5015169;28;20041;-73
2023/01/28 05:40:49;;;;;;;6.38;1.80;;;;;;;17.67;42.02;102864.28;5013678;28;20044;-73
2023/01/28 05:43:14;;;;;;;3.92;1.60;;;;;;;17.71;41.81;102865.84;5014379;28;20569;-75
2023/01/28 05:45:40;;;;;;;3.95;1.55;;;;;;;17.76;41.37;102863.84;5013900;28;20049;-74
2023/01/28 05:48:05;;;;;;;6.05;2.17;;;;;;;17.85;40.83;102864.31;5014748;28;20033;-75
2023/01/28 05:50:31;;;;;;;3.90;1.23;;;;;;;17.91;41.09;102869.34;5012988;28;20025;-73
2023/01/28 05:52:56;;;;;;;3.05;1.13;;;;;;;17.98;40.94;102868.13;5013630;28;20053;-74
2023/01/28 05:55:22;;;;;;;4.13;1.30;;;;;;;18.02;40.76;102868.84;5014021;28;20034;-73
2023/01/28 05:57:48;;;;;;;4.75;1.40;;;;;;;18.11;40.68;102878.94;5012601;28;20047;-74
2023/01/28 06:00:14;;;;;;;2.90;1.13;;;;;;;18.11;40.87;102879.78;5012653;28;20099;-74
2023/01/28 06:02:40;;;;;;;3.60;1.67;;;;;;;18.16;40.62;102879.56;5012798;28;20133;-75
2023/01/28 06:05:06;;;;;;;5.90;1.45;;;;;;;18.19;40.66;102876.78;5013022;28;20108;-75
2023/01/28 06:07:31;;;;;;;3.35;1.17;;;;;;;18.23;40.46;102888.03;5013438;28;20034;-75
2023/01/28 06:09:56;;;;;;;4.10;1.35;;;;;;;18.27;40.35;102889.59;5011211;28;20087;-73
2023/01/28 06:12:21;;;;;;;3.10;1.10;;;;;;;18.30;40.43;102885.00;5013833;28;20044;-75
2023/01/28 06:14:47;;;;;;;3.33;1.08;;;;;;;18.26;40.47;102877.31;5012645;28;20072;-75
2023/01/28 06:17:12;;;;;;;4.93;1.30;;;;;;;18.30;40.34;102879.72;5013541;28;20492;-74
2023/01/28 06:19:37;;;;;;;4.70;1.13;;;;;;;18.36;40.19;102899.69;5012278;28;20042;-73
2023/01/28 06:22:03;;;;;;;4.88;1.30;;;;;;;18.34;40.23;102887.50;5012011;28;20056;-74
2023/01/28 06:24:28;;;;;;;2.83;0.98;;;;;;;18.36;40.36;102880.34;5013372;28;20064;-74
2023/01/28 06:26:53;;;;;;;5.03;1.30;;;;;;;18.34;40.18;102884.84;5012462;28;20083;-74
2023/01/28 06:29:19;;;;;;;4.03;1.20;;;;;;;18.40;40.39;102895.13;5012994;28;20033;-75
2023/01/28 06:31:44;;;;;;;5.05;1.33;;;;;;;18.39;40.31;102889.00;5010980;28;20120;-75
2023/01/28 06:34:10;;;;;;;3.55;1.33;;;;;;;18.34;40.11;102884.84;5013130;28;20680;-75
2023/01/28 06:36:36;;;;;;;6.75;1.38;;;;;;;18.38;40.11;102891.72;5012877;28;20036;-76
2023/01/28 06:39:02;;;;;;;4.47;1.30;;;;;;;18.41;40.28;102895.03;5011917;28;20030;-75
2023/01/28 06:41:28;;;;;;;6.25;1.50;;;;;;;18.37;40.12;102887.34;5012461;28;20117;-74
2023/01/28 06:43:53;;;;;;;6.25;1.42;;;;;;;18.37;39.98;102887.34;5010706;28;20526;-75
2023/01/28 06:46:18;;;;;;;3.33;1.10;;;;;;;18.43;40.18;102893.16;5012723;28;20053;-74
2023/01/28 06:48:44;;;;;;;4.82;1.25;;;;;;;18.41;40.53;102897.69;5013529;28;20258;-74
2023/01/28 06:51:09;;;;;;;2.92;1.15;;;;;;;18.41;39.91;102896.84;5013143;28;20045;-75
2023/01/28 06:53:34;;;;;;;4.70;1.20;;;;;;;18.43;39.98;102909.00;5014289;28;20041;-73
2023/01/28 06:55:59;;;;;;;4.65;1.15;;;;;;;18.42;39.99;102906.44;5010521;28;20087;-73
2023/01/28 06:58:25;;;;;;;4.25;1.20;;;;;;;18.38;39.86;102892.56;5003114;28;20034;-73
2023/01/28 07:00:52;;;;;;;3.47;1.13;;;;;;;18.46;40.01;102908.00;5009981;28;20117;-73
2023/01/28 07:03:17;;;;;;;4.70;1.00;;;;;;;18.45;39.97;102904.53;5011877;28;20077;-75
2023/01/28 07:05:42;;;;;;;6.53;1.25;;;;;;;18.47;39.97;102901.81;5012309;28;20069;-75
2023/01/28 07:08:08;;;;;;;3.97;1.05;;;;;;;18.47;40.03;102907.09;5010930;28;20088;-77
2023/01/28 07:10:33;;;;;;;3.72;1.20;;;;;;;18.49;39.88;102910.50;5011025;28;20116;-74
2023/01/28 07:12:58;;;;;;;2.47;1.00;;;;;;;18.48;40.04;102908.78;5013102;28;20034;-73
2023/01/28 07:15:24;;;;;;;4.80;1.20;;;;;;;18.45;39.91;102901.88;5013571;28;20033;-74
2023/01/28 07:17:49;;;;;;;4.10;1.27;;;;;;;18.49;39.96;102916.63;5012691;28;20084;-74
2023/01/28 07:20:15;;;;;;;2.95;1.02;;;;;;;18.48;39.55;102920.22;5011709;28;20045;-74
2023/01/28 07:22:42;;;;;;;3.50;1.05;;;;;;;18.51;39.87;102923.63;5011948;28;20827;-73
2023/01/28 07:25:08;;;;;;;6.40;1.33;;;;;;;18.49;39.89;102931.63;5011160;28;20130;-75
2023/01/28 07:27:33;;;;;;;4.95;1.40;;;;;;;18.47;39.87;102930.84;5011682;28;20065;-74
2023/01/28 07:29:59;;;;;;;3.72;1.17;;;;;;;18.48;39.61;102929.91;5012295;28;20069;-74
2023/01/28 07:32:26;;;;;;;5.55;1.50;;;;;;;18.52;39.99;102930.59;5012380;28;20037;-74
2023/01/28 07:34:51;;;;;;;4.70;1.45;;;;;;;18.51;39.70;102936.81;5010701;28;20029;-76
2023/01/28 07:37:17;;;;;;;4.55;1.40;;;;;;;18.52;39.60;102942.03;5012749;28;20045;-75
2023/01/28 07:39:42;;;;;;;4.10;1.30;;;;;;;18.51;40.11;102936.81;5009862;28;20030;-74
2023/01/28 07:42:08;;;;;;;3.83;1.10;;;;;;;18.52;40.19;102939.38;5011885;28;20493;-75
2023/01/28 07:44:34;;;;;;;3.10;1.23;;;;;;;18.47;40.15;102928.22;5010893;28;20306;-76
2023/01/28 07:47:00;;;;;;;5.60;1.10;;;;;;;18.48;40.22;102932.53;5011737;28;20049;-77
2023/01/28 07:49:25;;;;;;;3.15;1.17;;;;;;;18.58;40.40;102948.78;5011214;28;20038;-72
2023/01/28 07:51:50;;;;;;;4.72;1.17;;;;;;;18.57;40.30;102945.28;5010947;28;20078;-73
2023/01/28 07:54:16;;;;;;;4.80;1.63;;;;;;;18.54;40.40;102945.44;5011666;28;20496;-74
2023/01/28 07:56:41;;;;;;;5.65;1.27;;;;;;;18.54;40.52;102940.16;5015431;28;20063;-74
2023/01/28 07:59:07;;;;;;;6.57;1.52;;;;;;;18.57;40.49;102952.38;5014957;28;20034;-78
2023/01/28 08:01:32;;;;;;;6.15;1.40;;;;;;;18.57;40.53;102958.50;5016391;28;20116;-73
2023/01/28 08:03:57;;;;;;;4.28;1.20;;;;;;;18.58;40.53;102967.25;5015410;28;20044;-76
2023/01/28 08:06:22;;;;;;;5.07;1.52;;;;;;;18.52;40.29;102949.94;5014833;28;20037;-73
2023/01/28 08:08:48;;;;;;;4.03;1.30;;;;;;;18.55;40.48;102955.09;5016449;28;20061;-74
2023/01/28 08:11:13;;;;;;;4.30;1.30;;;;;;;18.57;40.65;102955.84;5015149;28;20064;-76
2023/01/28 08:13:38;;;;;;;6.50;1.25;;;;;;;18.59;40.70;102958.41;5016292;28;20022;-76
2023/01/28 08:16:04;;;;;;;4.05;1.30;;;;;;;18.58;40.93;102956.69;5008936;28;20478;-75
2023/01/28 08:18:30;;;;;;;6.93;1.98;;;;;;;18.63;41.29;102963.47;5014534;28;20118;-75
2023/01/28 08:20:56;;;;;;;5.15;1.10;;;;;;;18.59;41.13;102967.19;5014492;28;20036;-74
2023/01/28 08:23:22;;;;;;;7.13;1.60;;;;;;;18.61;41.33;102975.91;5014989;28;20393;-76
2023/01/28 08:25:47;;;;;;;2.97;1.20;;;;;;;18.63;41.33;102986.41;5015611;28;20041;-71
2023/01/28 08:28:14;;;;;;;6.88;1.60;;;;;;;18.68;41.35;103002.88;5005536;28;20026;-76
2023/01/28 08:30:40;;;;;;;5.28;1.48;;;;;;;18.65;41.50;102990.66;5014273;28;20062;-79
2023/01/28 08:33:08;;;;;;;4.80;1.48;;;;;;;18.65;41.49;102982.72;5022448;28;20057;-72
2023/01/28 08:35:34;;;;;;;4.35;1.30;;;;;;;18.63;41.51;102983.75;5014893;28;20034;-80
2023/01/28 08:38:01;;;;;;;4.05;1.25;;;;;;;18.68;41.30;102989.66;5014659;28;20030;-77
2023/01/28 08:40:27;;;;;;;5.00;1.42;;;;;;;18.65;41.37;102987.16;5015383;28;20034;-76
2023/01/28 08:42:53;;;;;;;5.72;1.30;;;;;;;18.66;41.12;102995.00;5014831;28;20118;-75
2023/01/28 08:45:24;;;;;;;5.05;1.63;;;;;;;18.65;41.31;103001.22;5007049;28;20128;-74
2023/01/28 08:47:51;;;;;;;5.07;1.65;;;;;;;18.63;41.25;103000.44;5005792;28;20045;-77
2023/01/28 08:50:17;;;;;;;3.88;1.45;;;;;;;18.60;41.04;102990.03;5014264;28;20136;-76
2023/01/28 08:52:44;;;;;;;6.68;1.50;;;;;;;18.60;40.92;102994.47;5015232;28;20400;-74
2023/01/28 08:55:11;;;;;;;8.93;1.80;;;;;;;18.65;40.92;102992.44;5009693;28;20034;-75
2023/01/28 08:57:36;;;;;;;6.43;1.55;;;;;;;18.63;41.07;102992.53;5012832;28;20072;-74
2023/01/28 09:00:03;;;;;;;6.05;1.60;;;;;;;18.65;41.00;103010.94;5012230;28;20116;-75
2023/01/28 09:02:29;;;;;;;6.47;1.77;;;;;;;18.66;41.13;103010.84;5011080;28;20042;-72
2023/01/28 09:04:54;;;;;;;7.82;1.90;;;;;;;18.66;41.49;103010.84;5011833;28;20041;-76
2023/01/28 09:07:19;;;;;;;4.97;1.80;;;;;;;18.66;41.47;103016.13;5011346;28;20244;-73
2023/01/28 09:09:44;;;;;;;6.43;1.92;;;;;;;18.66;41.65;103010.84;5013013;28;20277;-70
2023/01/28 09:12:10;;;;;;;5.10;1.73;;;;;;;18.70;41.18;103018.63;5009381;28;21003;-72
2023/01/28 09:14:35;;;;;;;6.80;1.55;;;;;;;18.70;41.06;103016.84;5011193;28;20030;-73
2023/01/28 09:17:01;;;;;;;6.07;1.77;;;;;;;18.68;41.07;103016.06;5013302;28;20042;-72
2023/01/28 09:19:28;;;;;;;6.32;2.08;;;;;;;18.69;40.79;103015.13;5011603;28;20030;-72
2023/01/28 09:21:53;;;;;;;6.50;2.05;;;;;;;18.64;40.83;103020.66;5013516;28;20029;-72
2023/01/28 09:24:18;;;;;;;14.43;2.17;;;;;;;18.64;40.83;103022.41;5013946;28;20033;-71
2023/01/28 09:26:44;;;;;;;5.28;1.73;;;;;;;18.68;41.00;103026.63;5012803;28;20692;-71
2023/01/28 09:29:09;;;;;;;5.63;1.30;;;;;;;18.65;41.01;103026.78;5013173;28;20129;-72
2023/01/28 09:31:35;;;;;;;7.35;2.10;;;;;;;18.66;40.52;103023.22;5013012;28;20035;-69
2023/01/28 09:34:04;;;;;;;8.07;2.08;;;;;;;18.66;40.45;103029.34;5005204;28;20037;-75
2023/01/28 09:36:29;;;;;;;5.57;1.90;;;;;;;18.64;41.14;103030.34;5012869;28;20116;-75
2023/01/28 09:38:56;;;;;;;7.40;1.90;;;;;;;18.70;41.20;103045.03;5012207;28;20057;-77
2023/01/28 09:41:54;;;;;;;6.10;1.85;;;;;;;18.69;41.52;103044.16;5002766;28;20037;-76
2023/01/28 09:44:22;;;;;;;4.97;1.83;;;;;;;18.69;41.71;103044.16;5012011;28;20485;-78
2023/01/28 09:46:47;;;;;;;6.28;1.88;;;;;;;18.70;40.99;103047.69;5014197;28;20097;-77
2023/01/28 09:49:39;;;;;;;5.50;1.50;;;;;;;18.72;41.07;103048.47;5013544;28;20073;-79
2023/01/28 09:52:13;;;;;;;5.75;1.40;;;;;;;18.72;41.28;103045.81;5014167;28;20141;-76
2023/01/28 09:54:41;;;;;;;6.70;1.73;;;;;;;18.73;41.24;103040.47;5014771;28;20041;-77
2023/01/28 09:57:22;;;;;;;5.78;2.22;;;;;;;18.70;41.43;103037.13;5012760;28;20188;-79
2023/01/28 09:59:48;;;;;;;5.90;1.70;;;;;;;18.68;41.19;103043.31;5014063;28;20030;-77
2023/01/28 10:02:45;;;;;;;5.35;1.50;;;;;;;18.70;40.96;103050.31;5011654;28;20029;-77
2023/01/28 10:05:39;;;;;;;4.35;1.50;;;;;;;18.68;41.09;103045.97;5013071;28;20033;-79
2023/01/28 10:08:13;;;;;;;6.35;1.65;;;;;;;18.69;41.12;103057.38;5005796;28;20046;-75
2023/01/28 10:11:11;;;;;;;4.38;1.70;;;;;;;18.67;40.71;103062.75;5014999;28;20044;-76
2023/01/28 10:13:55;;;;;;;5.90;1.60;;;;;;;18.68;40.48;103066.25;5006068;28;20509;-77
2023/01/28 10:17:04;;;;;;;6.35;2.40;;;;;;;18.65;40.41;103054.03;5012981;28;20058;-78
2023/01/28 10:19:35;;;;;;;3.80;1.42;;;;;;;18.68;40.32;103069.72;5012454;28;20195;-76
2023/01/28 10:22:14;;;;;;;5.80;1.50;;;;;;;18.65;40.39;103058.47;5011964;28;20091;-78
2023/01/28 10:24:48;;;;;;;5.03;1.10;;;;;;;18.65;40.25;103069.03;5011812;28;20033;-73
2023/01/28 10:27:26;;;;;;;6.33;1.40;;;;;;;18.70;40.26;103082.88;5013941;28;20061;-78
2023/01/28 10:29:51;;;;;;;4.25;1.27;;;;;;;18.70;39.97;103077.59;5019102;28;20322;-72
2023/01/28 10:32:29;;;;;;;4.75;1.60;;;;;;;18.72;40.70;103072.22;5009854;28;20100;-71
2023/01/28 10:34:58;;;;;;;4.60;1.42;;;;;;;18.70;40.96;103063.53;5011267;28;20026;-73
2023/01/28 10:37:24;;;;;;;4.13;1.38;;;;;;;18.72;41.01;103066.94;5010576;28;20572;-70
2023/01/28 10:39:55;;;;;;;8.63;1.60;;;;;;;18.71;40.63;103060.81;5011310;28;20164;-71
2023/01/28 10:42:35;;;;;;;6.53;1.63;;;;;;;18.72;40.55;103059.03;5012007;28;20033;-71
2023/01/28 10:45:22;;;;;;;4.93;1.30;;;;;;;18.72;40.43;103059.88;5011937;28;20061;-75
2023/01/28 10:48:07;;;;;;;2.67;1.15;;;;;;;18.78;40.33;103061.38;5010260;28;20033;-72
2023/01/28 10:50:34;;;;;;;7.22;1.60;;;;;;;18.80;40.60;103064.78;5009523;28;20041;-73
2023/01/28 10:53:02;;;;;;;5.85;1.73;;;;;;;18.82;40.87;103066.44;5011673;28;20462;-77
2023/01/28 10:55:50;;;;;;;6.07;1.52;;;;;;;18.70;41.62;103042.41;5008164;28;20473;-78
2023/01/28 10:58:27;;;;;;;8.70;1.70;;;;;;;18.78;41.59;103059.56;5008952;28;20161;-75
2023/01/28 11:00:59;;;;;;;7.72;1.63;;;;;;;18.83;41.26;103052.31;5009441;28;20033;-74
2023/01/28 11:03:29;;;;;;;6.50;1.67;;;;;;;18.80;41.23;103056.84;5009333;28;20038;-74
2023/01/28 11:05:56;;;;;;;6.00;1.55;;;;;;;18.79;40.82;103060.44;5001263;28;20168;-71
2023/01/28 11:08:24;;;;;;;6.30;1.50;;;;;;;18.80;40.88;103065.66;5008229;28;20367;-74
2023/01/28 11:10:51;;;;;;;8.23;1.75;;;;;;;18.79;41.07;103052.53;5010758;28;20112;-72
2023/01/28 11:13:22;;;;;;;6.10;1.55;;;;;;;18.83;41.17;103057.59;5011194;28;20029;-70
2023/01/28 11:15:57;;;;;;;5.95;1.60;;;;;;;18.83;41.03;103062.00;5010695;28;20034;-74
2023/01/28 11:18:27;;;;;;;7.50;1.50;;;;;;;18.85;40.75;103060.19;5011611;28;20094;-72
2023/01/28 11:20:59;;;;;;;8.25;1.80;;;;;;;18.84;40.81;103053.19;5010668;28;20053;-72
2023/01/28 11:23:28;;;;;;;6.18;1.85;;;;;;;18.85;40.69;103049.63;5011605;28;20124;-72
2023/01/28 11:26:04;;;;;;;4.43;1.50;;;;;;;18.83;40.90;103041.72;5012100;28;20040;-71
2023/01/28 11:28:30;;;;;;;5.50;1.83;;;;;;;18.81;40.81;103034.81;5010145;28;20573;-70
2023/01/28 11:30:59;;;;;;;7.43;1.60;;;;;;;18.84;41.18;103040.81;5010440;28;20026;-73
2023/01/28 11:33:41;;;;;;;5.45;1.65;;;;;;;18.87;41.66;103034.53;5011261;28;20033;-69
2023/01/28 11:36:13;;;;;;;5.47;1.60;;;;;;;18.84;41.60;103018.84;5009524;28;20030;-73
2023/01/28 11:38:54;;;;;;;4.43;1.10;;;;;;;18.85;41.30;103023.19;5009519;28;20040;-74
2023/01/28 11:41:34;;;;;;;5.75;1.40;;;;;;;18.87;40.96;103023.97;5010997;28;20049;-71
2023/01/28 11:44:10;;;;;;;4.07;1.20;;;;;;;18.85;40.86;103009.97;5011561;28;20087;-71
2023/01/28 11:47:13;;;;;;;4.28;1.60;;;;;;;18.90;40.82;103022.94;5011290;28;20072;-74
2023/01/28 11:49:56;;;;;;;3.88;1.52;;;;;;;18.89;41.05;103018.59;5010945;28;20050;-73
2023/01/28 11:52:50;;;;;;;5.00;1.50;;;;;;;18.88;41.05;102999.22;5011035;28;20115;-72
2023/01/28 11:55:44;;;;;;;6.45;1.60;;;;;;;18.87;40.92;102992.25;5011295;28;20073;-78
2023/01/28 11:59:06;;;;;;;4.28;1.38;;;;;;;18.84;40.56;102974.75;5004607;28;20080;-74
2023/01/28 12:01:44;;;;;;;7.15;2.08;;;;;;;18.91;40.75;102967.38;4969942;28;20034;-73
2023/01/28 12:04:21;;;;;;;8.90;1.88;;;;;;;18.87;40.78;102951.75;5006089;28;20183;-74
2023/01/28 12:06:59;;;;;;;5.85;1.60;;;;;;;18.92;40.69;102945.31;5011279;28;20041;-74